createdAt,value
2022-12-04T00:00:36.096Z,1.70
2022-12-04T00:03:03.481Z,1.60
2022-12-04T00:05:30.570Z,1.60
2022-12-04T00:07:57.819Z,1.60
2022-12-04T00:10:24.989Z,1.70
2022-12-04T00:12:52.063Z,1.60
2022-12-04T00:15:26.989Z,1.60
2022-12-04T00:17:54.334Z,1.60
2022-12-04T00:20:21.685Z,1.60
2022-12-04T00:22:48.706Z,1.50
2022-12-04T00:25:15.850Z,1.50
2022-12-04T00:27:42.869Z,1.60
2022-12-04T00:30:10.758Z,1.60
2022-12-04T00:32:37.903Z,1.50
2022-12-04T00:35:05.493Z,1.50
2022-12-04T00:37:33.803Z,1.50
2022-12-04T00:40:00.882Z,1.50
2022-12-04T00:42:27.975Z,1.50
2022-12-04T00:44:55.028Z,1.60
2022-12-04T00:47:22.095Z,1.60
2022-12-04T00:49:49.165Z,1.60
2022-12-04T00:52:16.462Z,1.60
2022-12-04T00:54:43.552Z,1.60
2022-12-04T00:57:10.611Z,1.50
2022-12-04T00:59:38.445Z,1.50
2022-12-04T01:02:05.675Z,1.50
2022-12-04T01:04:32.803Z,1.40
2022-12-04T01:07:03.365Z,1.50
2022-12-04T01:09:33.308Z,1.50
2022-12-04T01:12:00.348Z,1.50
2022-12-04T01:14:27.498Z,1.40
2022-12-04T01:16:56.525Z,1.40
2022-12-04T01:19:23.708Z,1.40
2022-12-04T01:21:50.839Z,1.50
2022-12-04T01:24:17.964Z,1.50
2022-12-04T01:26:44.970Z,1.50
2022-12-04T01:29:12.074Z,1.50
2022-12-04T01:31:39.283Z,1.50
2022-12-04T01:34:06.389Z,1.40
2022-12-04T01:36:33.429Z,1.40
2022-12-04T01:39:00.472Z,1.40
2022-12-04T01:41:30.509Z,1.40
2022-12-04T01:44:19.256Z,1.40
2022-12-04T01:46:57.118Z,1.50
2022-12-04T01:49:35.722Z,1.40
2022-12-04T01:52:21.085Z,1.40
2022-12-04T01:54:54.758Z,1.40
2022-12-04T01:57:25.418Z,1.50
2022-12-04T01:59:58.081Z,1.40
2022-12-04T02:02:33.568Z,1.40
2022-12-04T02:05:03.628Z,1.50
2022-12-04T02:07:31.233Z,1.50
2022-12-04T02:10:03.851Z,1.50
2022-12-04T02:12:44.231Z,1.50
2022-12-04T02:15:18.195Z,1.50
2022-12-04T02:18:17.906Z,1.50
2022-12-04T02:21:08.639Z,1.60
2022-12-04T02:24:23.426Z,1.50
2022-12-04T02:27:26.078Z,1.50
2022-12-04T02:30:14.825Z,1.50
2022-12-04T02:33:21.985Z,1.60
2022-12-04T02:36:11.549Z,1.60
2022-12-04T02:38:55.538Z,1.50
2022-12-04T02:41:40.174Z,1.40
2022-12-04T02:44:20.991Z,1.50
2022-12-04T02:46:54.611Z,1.50
2022-12-04T02:49:32.165Z,1.50
2022-12-04T02:52:00.539Z,1.60
2022-12-04T02:54:40.648Z,1.60
2022-12-04T02:57:14.078Z,1.60
2022-12-04T02:59:47.720Z,1.60
2022-12-04T03:02:47.342Z,1.60
2022-12-04T03:05:21.279Z,1.60
2022-12-04T03:07:58.015Z,1.60
2022-12-04T03:10:34.417Z,1.60
2022-12-04T03:13:26.832Z,1.70
2022-12-04T03:16:09.816Z,1.70
2022-12-04T03:18:45.373Z,1.70
2022-12-04T03:21:21.775Z,1.60
2022-12-04T03:23:57.446Z,1.60
2022-12-04T03:26:45.542Z,1.60
2022-12-04T03:29:18.849Z,1.70
2022-12-04T03:31:56.045Z,1.70
2022-12-04T03:34:41.074Z,1.70
2022-12-04T03:37:17.570Z,1.80
2022-12-04T03:40:08.124Z,1.80
2022-12-04T03:42:57.614Z,1.80
2022-12-04T03:45:30.772Z,1.80
2022-12-04T03:48:23.495Z,1.80
2022-12-04T03:51:18.000Z,1.80
2022-12-04T03:53:54.862Z,1.80
2022-12-04T03:56:36.970Z,1.80
2022-12-04T03:59:11.508Z,1.80
2022-12-04T04:01:47.307Z,1.90
2022-12-04T04:04:28.816Z,1.80
2022-12-04T04:07:07.658Z,1.80
2022-12-04T04:09:40.633Z,1.80
2022-12-04T04:12:22.074Z,1.80
2022-12-04T04:15:24.154Z,1.90
2022-12-04T04:18:11.066Z,1.80
2022-12-04T04:21:03.188Z,1.90
2022-12-04T04:23:54.274Z,1.90
2022-12-04T04:26:22.884Z,1.80
2022-12-04T04:28:50.022Z,1.80
2022-12-04T04:31:31.823Z,1.80
2022-12-04T04:34:10.636Z,1.90
2022-12-04T04:37:06.429Z,1.90
2022-12-04T04:39:56.711Z,1.90
2022-12-04T04:43:08.084Z,1.90
2022-12-04T04:45:41.682Z,1.80
2022-12-04T04:48:37.094Z,1.90
2022-12-04T04:51:05.182Z,1.90
2022-12-04T04:53:41.923Z,1.90
2022-12-04T04:56:09.649Z,1.90
2022-12-04T04:58:36.802Z,1.90
2022-12-04T05:01:10.686Z,1.90
2022-12-04T05:03:38.043Z,2.00
2022-12-04T05:06:06.328Z,2.00
2022-12-04T05:08:34.162Z,2.00
2022-12-04T05:11:01.625Z,2.00
2022-12-04T05:13:30.414Z,2.00
2022-12-04T05:16:03.922Z,2.00
2022-12-04T05:18:31.983Z,2.00
2022-12-04T05:20:59.036Z,2.00
2022-12-04T05:23:26.202Z,2.10
2022-12-04T05:26:01.348Z,2.10
2022-12-04T05:28:29.057Z,2.10
2022-12-04T05:31:02.263Z,2.20
2022-12-04T05:33:30.717Z,2.20
2022-12-04T05:36:09.671Z,2.10
2022-12-04T05:38:37.829Z,2.10
2022-12-04T05:41:06.523Z,2.10
2022-12-04T05:43:34.025Z,2.10
2022-12-04T05:46:08.210Z,2.00
2022-12-04T05:48:36.181Z,2.10
2022-12-04T05:51:10.838Z,2.10
2022-12-04T05:53:38.659Z,2.10
2022-12-04T05:56:07.576Z,2.10
2022-12-04T05:58:38.429Z,2.10
2022-12-04T06:01:24.979Z,2.20
2022-12-04T06:03:52.425Z,2.10
2022-12-04T06:06:24.512Z,2.20
2022-12-04T06:08:56.241Z,2.10
2022-12-04T06:11:27.582Z,2.10
2022-12-04T06:13:56.641Z,2.20
2022-12-04T06:16:28.497Z,2.20
2022-12-04T06:18:59.580Z,2.20
2022-12-04T06:21:29.203Z,2.30
2022-12-04T06:23:56.566Z,2.30
2022-12-04T06:26:24.972Z,2.30
2022-12-04T06:28:57.564Z,2.30
2022-12-04T06:31:26.900Z,2.30
2022-12-04T06:33:56.293Z,2.30
2022-12-04T06:36:26.045Z,2.30
2022-12-04T06:38:56.365Z,2.40
2022-12-04T06:41:24.880Z,2.30
2022-12-04T06:43:52.003Z,2.30
2022-12-04T06:46:28.690Z,2.30
2022-12-04T06:48:58.302Z,2.30
2022-12-04T06:51:32.673Z,2.30
2022-12-04T06:54:01.813Z,2.20
2022-12-04T06:56:32.321Z,2.10
2022-12-04T06:59:02.480Z,2.20
2022-12-04T07:01:32.445Z,2.20
2022-12-04T07:04:01.208Z,2.30
2022-12-04T07:06:35.243Z,2.30
2022-12-04T07:09:11.289Z,2.30
2022-12-04T07:11:40.484Z,2.30
2022-12-04T07:14:08.083Z,2.30
2022-12-04T07:16:40.228Z,2.30
2022-12-04T07:19:08.954Z,2.40
2022-12-04T07:21:36.042Z,2.40
2022-12-04T07:24:03.341Z,2.40
2022-12-04T07:26:31.526Z,2.40
2022-12-04T07:28:59.796Z,2.40
2022-12-04T07:31:28.995Z,2.40
2022-12-04T07:33:56.667Z,2.40
2022-12-04T07:36:25.498Z,2.40
2022-12-04T07:38:53.102Z,2.40
2022-12-04T07:41:20.308Z,2.40
2022-12-04T07:43:47.758Z,2.40
2022-12-04T07:46:22.446Z,2.40
2022-12-04T07:48:49.589Z,2.50
2022-12-04T07:51:21.412Z,2.50
2022-12-04T07:53:50.465Z,2.40
2022-12-04T07:56:18.176Z,2.50
2022-12-04T07:58:46.028Z,2.40
2022-12-04T08:01:18.002Z,2.40
2022-12-04T08:03:48.943Z,2.30
2022-12-04T08:06:21.972Z,2.30
2022-12-04T08:08:50.593Z,2.40
2022-12-04T08:11:22.350Z,2.30
2022-12-04T08:13:58.960Z,2.40
2022-12-04T08:16:27.506Z,2.40
2022-12-04T08:18:55.390Z,2.40
2022-12-04T08:21:26.368Z,2.50
2022-12-04T08:23:55.390Z,2.40
2022-12-04T08:26:25.720Z,2.50
2022-12-04T08:28:57.229Z,2.50
2022-12-04T08:31:27.349Z,2.50
2022-12-04T08:33:57.290Z,2.60
2022-12-04T08:36:24.870Z,2.60
2022-12-04T08:38:52.444Z,2.60
2022-12-04T08:41:24.183Z,2.60
2022-12-04T08:43:54.835Z,2.60
2022-12-04T08:46:23.389Z,2.60
2022-12-04T08:48:50.534Z,2.70
2022-12-04T08:51:25.486Z,2.70
2022-12-04T08:54:01.838Z,2.70
2022-12-04T08:56:31.272Z,2.80
2022-12-04T08:58:59.659Z,2.90
2022-12-04T09:01:28.383Z,2.90
2022-12-04T09:03:56.154Z,3.00
2022-12-04T09:06:24.133Z,2.90
2022-12-04T09:08:55.948Z,2.90
2022-12-04T09:11:26.857Z,2.90
2022-12-04T09:13:54.489Z,2.90
2022-12-04T09:16:25.184Z,3.00
2022-12-04T09:18:52.568Z,3.00
2022-12-04T09:21:22.062Z,3.10
2022-12-04T09:23:49.517Z,3.20
2022-12-04T09:26:27.733Z,3.20
2022-12-04T09:28:56.747Z,3.20
2022-12-04T09:31:25.970Z,3.30
2022-12-04T09:33:53.827Z,3.30
2022-12-04T09:36:21.366Z,3.30
2022-12-04T09:38:51.065Z,3.30
2022-12-04T09:41:51.701Z,3.30
2022-12-04T09:44:24.259Z,3.30
2022-12-04T09:47:02.641Z,3.40
2022-12-04T09:49:43.893Z,3.40
2022-12-04T09:53:06.123Z,3.40
2022-12-04T09:55:51.198Z,3.50
2022-12-04T09:58:26.818Z,3.50
2022-12-04T10:00:55.763Z,3.50
2022-12-04T10:03:27.955Z,3.50
2022-12-04T10:06:14.973Z,3.50
2022-12-04T10:08:45.680Z,3.50
2022-12-04T10:11:32.646Z,3.50
2022-12-04T10:14:39.211Z,3.50
2022-12-04T10:17:33.132Z,3.60
2022-12-04T10:20:24.514Z,3.60
2022-12-04T10:23:03.115Z,3.70
2022-12-04T10:25:34.154Z,3.60
2022-12-04T10:28:44.388Z,3.60
2022-12-04T10:31:16.038Z,3.50
2022-12-04T10:34:06.125Z,3.50
2022-12-04T10:36:35.822Z,3.50
2022-12-04T10:39:38.073Z,3.50
2022-12-04T10:42:20.020Z,3.60
2022-12-04T10:44:47.214Z,3.60
2022-12-04T10:47:14.771Z,3.70
2022-12-04T10:49:42.386Z,3.70
2022-12-04T10:52:13.228Z,3.70
2022-12-04T10:55:02.616Z,3.80
2022-12-04T10:57:59.055Z,3.80
2022-12-04T11:00:35.426Z,3.80
2022-12-04T11:03:10.355Z,3.80
2022-12-04T11:05:57.949Z,3.80
2022-12-04T11:08:43.190Z,3.90
2022-12-04T11:11:14.762Z,3.90
2022-12-04T11:13:42.639Z,3.90
2022-12-04T11:16:39.629Z,3.90
2022-12-04T11:19:22.247Z,3.90
2022-12-04T11:21:49.876Z,3.90
2022-12-04T11:24:33.939Z,3.80
2022-12-04T11:27:03.406Z,3.90
2022-12-04T11:29:41.298Z,3.90
2022-12-04T11:32:35.180Z,3.90
2022-12-04T11:35:12.476Z,3.90
2022-12-04T11:37:45.161Z,3.80
2022-12-04T11:40:19.122Z,3.80
2022-12-04T11:43:14.457Z,3.70
2022-12-04T11:45:42.346Z,3.70
2022-12-04T11:48:18.651Z,3.70
2022-12-04T11:51:14.823Z,3.70
2022-12-04T11:54:07.221Z,3.60
2022-12-04T11:56:37.481Z,3.60
2022-12-04T11:59:36.330Z,3.60
2022-12-04T12:02:38.555Z,3.60
2022-12-04T12:05:17.616Z,3.60
2022-12-04T12:08:37.798Z,3.60
2022-12-04T12:11:19.862Z,3.60
2022-12-04T12:13:55.261Z,3.50
2022-12-04T12:16:51.343Z,3.60
2022-12-04T12:19:44.842Z,3.50
2022-12-04T12:22:43.541Z,3.40
2022-12-04T12:25:26.865Z,3.50
2022-12-04T12:28:33.969Z,3.60
2022-12-04T12:31:32.763Z,3.50
2022-12-04T12:34:09.057Z,3.50
2022-12-04T12:36:44.259Z,3.60
2022-12-04T12:39:40.418Z,3.60
2022-12-04T12:42:19.535Z,3.60
2022-12-04T12:45:24.293Z,3.60
2022-12-04T12:47:56.869Z,3.60
2022-12-04T12:50:35.741Z,3.60
2022-12-04T12:53:12.172Z,3.60
2022-12-04T12:55:54.268Z,3.60
2022-12-04T12:58:39.214Z,3.60
2022-12-04T13:01:15.064Z,3.60
2022-12-04T13:04:31.086Z,3.60
2022-12-04T13:07:26.516Z,3.60
2022-12-04T13:09:57.242Z,3.60
2022-12-04T13:12:24.865Z,3.50
2022-12-04T13:14:51.998Z,3.40
2022-12-04T13:17:38.673Z,3.40
2022-12-04T13:20:19.029Z,3.30
2022-12-04T13:23:01.000Z,3.20
2022-12-04T13:26:04.293Z,3.10
2022-12-04T13:29:14.701Z,3.20
2022-12-04T13:32:01.488Z,3.20
2022-12-04T13:34:43.569Z,3.30
2022-12-04T13:37:54.322Z,3.30
2022-12-04T13:40:55.886Z,3.40
2022-12-04T13:43:45.787Z,3.40
2022-12-04T13:46:36.408Z,3.40
2022-12-04T13:49:19.162Z,3.50
2022-12-04T13:51:49.467Z,3.50
2022-12-04T13:54:16.498Z,3.50
2022-12-04T13:56:51.385Z,3.50
2022-12-04T13:59:27.504Z,3.50
2022-12-04T14:02:01.268Z,3.50
2022-12-04T14:04:46.638Z,3.40
2022-12-04T14:07:39.867Z,3.40
2022-12-04T14:10:27.142Z,3.40
2022-12-04T14:13:19.497Z,3.40
2022-12-04T14:15:46.836Z,3.30
2022-12-04T14:18:14.075Z,3.30
2022-12-04T14:20:44.838Z,3.30
2022-12-04T14:23:27.155Z,3.30
2022-12-04T14:25:57.823Z,3.30
2022-12-04T14:28:42.668Z,3.30
2022-12-04T14:31:35.872Z,3.30
2022-12-04T14:34:15.478Z,3.30
2022-12-04T14:36:46.182Z,3.20
2022-12-04T14:39:41.736Z,3.30
2022-12-04T14:42:27.985Z,3.20
2022-12-04T14:45:01.302Z,3.30
2022-12-04T14:47:52.614Z,3.30
2022-12-04T14:50:46.255Z,3.20
2022-12-04T14:53:52.202Z,3.20
2022-12-04T14:56:58.829Z,3.20
2022-12-04T14:59:44.559Z,3.20
2022-12-04T15:02:21.648Z,3.20
2022-12-04T15:04:50.787Z,3.20
2022-12-04T15:07:31.543Z,3.20
2022-12-04T15:10:20.453Z,3.20
2022-12-04T15:12:51.562Z,3.20
2022-12-04T15:15:30.437Z,3.20
2022-12-04T15:18:17.450Z,3.10
2022-12-04T15:20:51.325Z,3.10
2022-12-04T15:23:27.228Z,3.10
2022-12-04T15:26:01.273Z,2.90
2022-12-04T15:28:36.210Z,2.90
2022-12-04T15:31:06.645Z,2.90
2022-12-04T15:33:37.515Z,2.90
2022-12-04T15:36:41.758Z,2.80
2022-12-04T15:39:14.351Z,2.80
2022-12-04T15:41:41.424Z,2.80
2022-12-04T15:44:29.722Z,2.80
2022-12-04T15:47:01.388Z,2.80
2022-12-04T15:49:33.639Z,2.80
2022-12-04T15:52:15.535Z,2.80
2022-12-04T15:54:56.789Z,2.80
2022-12-04T15:57:39.372Z,2.80
2022-12-04T16:00:27.255Z,2.80
2022-12-04T16:02:55.671Z,2.80
2022-12-04T16:05:22.638Z,2.90
2022-12-04T16:08:23.682Z,2.90
2022-12-04T16:11:20.370Z,2.90
2022-12-04T16:14:07.957Z,2.80
2022-12-04T16:16:37.392Z,2.80
2022-12-04T16:19:15.662Z,2.70
2022-12-04T16:21:42.857Z,2.70
2022-12-04T16:24:13.309Z,2.70
2022-12-04T16:26:41.433Z,2.60
2022-12-04T16:29:08.715Z,2.60
2022-12-04T16:31:36.765Z,2.60
2022-12-04T16:34:04.499Z,2.60
2022-12-04T16:36:31.629Z,2.50
2022-12-04T16:38:58.699Z,2.50
2022-12-04T16:41:25.869Z,2.50
2022-12-04T16:43:56.180Z,2.50
2022-12-04T16:46:26.819Z,2.50
2022-12-04T16:48:54.686Z,2.40
2022-12-04T16:51:26.155Z,2.40
2022-12-04T16:53:54.454Z,2.40
2022-12-04T16:56:22.262Z,2.40
2022-12-04T16:58:49.977Z,2.30
2022-12-04T17:01:27.682Z,2.30
2022-12-04T17:03:54.770Z,2.30
2022-12-04T17:06:22.151Z,2.30
2022-12-04T17:08:49.310Z,2.30
2022-12-04T17:11:17.814Z,2.30
2022-12-04T17:13:45.401Z,2.30
2022-12-04T17:16:15.005Z,2.20
2022-12-04T17:18:45.397Z,2.20
2022-12-04T17:21:14.217Z,2.10
2022-12-04T17:23:41.983Z,2.20
2022-12-04T17:26:15.242Z,2.10
2022-12-04T17:28:43.749Z,2.10
2022-12-04T17:31:18.972Z,2.10
2022-12-04T17:33:46.617Z,2.10
2022-12-04T17:36:18.526Z,2.10
2022-12-04T17:38:46.236Z,2.10
2022-12-04T17:41:15.467Z,2.10
2022-12-04T17:43:43.769Z,2.00
2022-12-04T17:46:14.536Z,2.10
2022-12-04T17:48:42.168Z,2.00
2022-12-04T17:51:20.816Z,2.00
2022-12-04T17:53:49.175Z,2.10
2022-12-04T17:56:23.214Z,2.10
2022-12-04T17:58:51.792Z,2.10
2022-12-04T18:01:23.534Z,2.10
2022-12-04T18:03:56.592Z,2.10
2022-12-04T18:06:27.753Z,2.10
2022-12-04T18:08:55.143Z,2.10
2022-12-04T18:11:26.636Z,2.10
2022-12-04T18:14:00.677Z,2.10
2022-12-04T18:16:30.334Z,2.10
2022-12-04T18:18:59.585Z,2.00
2022-12-04T18:21:27.268Z,2.10
2022-12-04T18:23:58.601Z,2.00
2022-12-04T18:26:28.669Z,2.00
2022-12-04T18:28:55.975Z,2.00
2022-12-04T18:31:23.446Z,2.00
2022-12-04T18:33:51.048Z,2.00
2022-12-04T18:36:21.696Z,2.00
2022-12-04T18:38:55.827Z,2.00
2022-12-04T18:41:23.800Z,1.90
2022-12-04T18:43:52.271Z,1.90
2022-12-04T18:46:21.795Z,1.90
2022-12-04T18:48:52.591Z,1.90
2022-12-04T18:51:26.993Z,1.90
2022-12-04T18:53:59.809Z,1.90
2022-12-04T18:56:27.092Z,1.90
2022-12-04T18:59:08.661Z,2.00
2022-12-04T19:01:36.222Z,1.90
2022-12-04T19:04:07.062Z,1.90
2022-12-04T19:06:46.554Z,2.00
2022-12-04T19:09:20.342Z,2.00
2022-12-04T19:11:47.493Z,2.00
2022-12-04T19:14:22.996Z,2.00
2022-12-04T19:16:51.393Z,2.00
2022-12-04T19:19:18.670Z,2.00
2022-12-04T19:21:46.165Z,2.00
2022-12-04T19:24:14.191Z,2.00
2022-12-04T19:26:41.606Z,2.00
2022-12-04T19:29:09.004Z,2.10
2022-12-04T19:31:37.640Z,2.10
2022-12-04T19:34:06.318Z,2.10
2022-12-04T19:36:35.140Z,2.10
2022-12-04T19:39:04.709Z,2.20
2022-12-04T19:41:34.413Z,2.20
2022-12-04T19:44:14.668Z,2.20
2022-12-04T19:46:50.441Z,2.20
2022-12-04T19:49:18.059Z,2.10
2022-12-04T19:51:45.111Z,2.20
2022-12-04T19:54:14.282Z,2.20
2022-12-04T19:56:42.840Z,2.20
2022-12-04T19:59:10.827Z,2.20
2022-12-04T20:01:40.044Z,2.20
2022-12-04T20:04:09.165Z,2.20
2022-12-04T20:06:43.492Z,2.20
2022-12-04T20:09:19.918Z,2.30
2022-12-04T20:11:48.154Z,2.30
2022-12-04T20:14:15.514Z,2.30
2022-12-04T20:16:43.204Z,2.20
2022-12-04T20:19:14.728Z,2.30
2022-12-04T20:21:42.895Z,2.20
2022-12-04T20:24:15.191Z,2.20
2022-12-04T20:26:47.253Z,2.20
2022-12-04T20:29:19.981Z,2.20
2022-12-04T20:31:48.003Z,2.20
2022-12-04T20:34:21.338Z,2.20
2022-12-04T20:36:49.681Z,2.20
2022-12-04T20:39:20.209Z,2.30
2022-12-04T20:41:47.748Z,2.30
2022-12-04T20:44:19.389Z,2.30
2022-12-04T20:46:46.956Z,2.30
2022-12-04T20:49:22.109Z,2.20
2022-12-04T20:51:51.384Z,2.20
2022-12-04T20:54:22.042Z,2.20
2022-12-04T20:56:53.865Z,2.20
2022-12-04T20:59:23.906Z,2.10
2022-12-04T21:01:52.053Z,2.10
2022-12-04T21:04:20.079Z,2.10
2022-12-04T21:06:49.281Z,2.00
2022-12-04T21:09:24.254Z,2.00
2022-12-04T21:11:55.867Z,2.00
2022-12-04T21:14:44.371Z,2.00
2022-12-04T21:17:18.530Z,2.10
2022-12-04T21:19:50.839Z,2.10
2022-12-04T21:22:19.564Z,2.10
2022-12-04T21:24:46.726Z,2.10
2022-12-04T21:27:19.178Z,2.00
2022-12-04T21:29:49.449Z,2.10
2022-12-04T21:32:18.344Z,2.10
2022-12-04T21:34:45.499Z,2.10
2022-12-04T21:37:12.569Z,2.00
2022-12-04T21:39:39.675Z,2.10
2022-12-04T21:42:25.130Z,2.10
2022-12-04T21:44:52.317Z,2.20
2022-12-04T21:47:19.341Z,2.20
2022-12-04T21:49:47.812Z,2.30
2022-12-04T21:52:18.707Z,2.20
2022-12-04T21:54:49.437Z,2.30
2022-12-04T21:57:16.429Z,2.30
2022-12-04T21:59:43.557Z,2.30
2022-12-04T22:02:12.882Z,2.20
2022-12-04T22:04:40.518Z,2.20
2022-12-04T22:07:07.874Z,2.20
2022-12-04T22:09:35.053Z,2.20
2022-12-04T22:12:04.195Z,2.20
2022-12-04T22:14:41.948Z,2.20
2022-12-04T22:17:08.925Z,2.20
2022-12-04T22:19:36.579Z,2.20
2022-12-04T22:22:03.646Z,2.20
2022-12-04T22:24:30.659Z,2.20
2022-12-04T22:26:57.694Z,2.20
2022-12-04T22:29:49.176Z,2.20
2022-12-04T22:32:12.372Z,2.20
2022-12-04T22:34:39.730Z,2.20
2022-12-04T22:37:06.772Z,2.20
2022-12-04T22:39:33.940Z,2.20
2022-12-04T22:42:01.017Z,2.20
2022-12-04T22:44:28.005Z,2.10
2022-12-04T22:46:55.102Z,2.20
2022-12-04T22:49:22.209Z,2.20
2022-12-04T22:51:49.257Z,2.10
2022-12-04T22:54:16.258Z,2.10
2022-12-04T22:56:46.153Z,2.10
2022-12-04T22:59:13.143Z,2.10
2022-12-04T23:01:40.291Z,2.10
2022-12-04T23:04:07.514Z,2.10
2022-12-04T23:06:35.286Z,2.10
2022-12-04T23:09:07.811Z,2.10
2022-12-04T23:11:35.988Z,2.20
2022-12-04T23:14:06.403Z,2.20
2022-12-04T23:16:37.396Z,2.20
2022-12-04T23:19:06.954Z,2.20
2022-12-04T23:21:34.951Z,2.20
2022-12-04T23:24:02.342Z,2.10
2022-12-04T23:26:36.413Z,2.10
2022-12-04T23:29:13.511Z,2.10
2022-12-04T23:31:51.344Z,2.10
2022-12-04T23:34:18.553Z,2.10
2022-12-04T23:36:45.616Z,2.10
2022-12-04T23:39:12.707Z,2.20
2022-12-04T23:41:39.796Z,2.20
2022-12-04T23:44:06.830Z,2.20
2022-12-04T23:46:34.164Z,2.20
2022-12-04T23:49:02.282Z,2.20
2022-12-04T23:51:29.793Z,2.20
2022-12-04T23:53:57.102Z,2.20
2022-12-04T23:56:30.001Z,2.30
2022-12-04T23:58:58.225Z,2.30
